Time;durP1;ratioP1;P1;durP2;ratioP2;P2;SDS_P1;SDS_P2;PMS_P1;PMS_P2;Temp;Humidity;BMP_temperature;BMP_pressure;BME280_temperature;BME280_humidity;BME280_pressure;Samples;Min_cycle;Max_cycle;Signal;HPM_P1;HPM_P2
2022/10/19 00:01:26;;;;;;;;;;;;;;;14.05;56.38;100195.38;4355109;32;33809;-86
2022/10/19 00:03:55;;;;;;;;;;;;;;;13.84;57.05;100196.66;4354626;32;33459;-89
2022/10/19 00:06:25;;;;;;;;;;;;;;;13.82;57.38;100194.94;4361818;32;33347;-86
2022/10/19 00:08:59;;;;;;;;;;;;;;;13.81;57.43;100191.47;4355126;32;34530;-88
2022/10/19 00:11:28;;;;;;;;;;;;;;;13.76;57.70;100185.50;4351861;32;35100;-86
2022/10/19 00:14:00;;;;;;;;;;;;;;;13.61;58.20;100181.41;4342901;33;34002;-87
2022/10/19 00:16:30;;;;;;;;;;;;;;;13.63;58.36;100182.25;4347584;33;32787;-84
2022/10/19 00:19:03;;;;;;;;;;;;;;;13.78;57.95;100180.25;4345472;32;33716;-88
2022/10/19 00:21:31;;;;;;;;;;;;;;;13.68;58.22;100171.75;4342350;33;34478;-90
2022/10/19 00:24:04;;;;;;;;;;;;;;;13.84;57.83;100160.16;4342189;33;33474;-87
2022/10/19 00:26:32;;;;;;;;;;;;;;;13.81;57.85;100167.16;4342223;33;33403;-86
2022/10/19 00:29:02;;;;;;;;;;;;;;;13.72;57.94;100164.72;4360296;32;33226;-86
2022/10/19 00:31:32;;;;;;;;;;;;;;;13.76;58.16;100163.78;4361563;32;34793;-89
2022/10/19 00:34:01;;;;;;;;;;;;;;;13.65;58.63;100167.44;4357410;32;34722;-87
2022/10/19 00:36:34;;;;;;;;;;;;;;;13.64;58.66;100164.84;4357274;32;33509;-86
2022/10/19 00:39:06;;;;;;;;;;;;;;;13.50;58.93;100159.88;4357441;32;35840;-88
2022/10/19 00:41:35;;;;;;;;;;;;;;;13.62;58.83;100154.44;4348785;32;33646;-86
2022/10/19 00:44:04;;;;;;;;;;;;;;;13.83;58.03;100154.94;4354694;32;34133;-87
2022/10/19 00:46:34;;;;;;;;;;;;;;;13.78;58.10;100149.81;4356306;32;34171;-88
2022/10/19 00:49:05;;;;;;;;;;;;;;;13.79;58.12;100142.84;4355595;32;34408;-89
2022/10/19 00:51:39;;;;;;;;;;;;;;;13.75;58.02;100143.78;4360234;32;33787;-88
2022/10/19 00:54:11;;;;;;;;;;;;;;;13.82;58.00;100137.56;4353105;32;33795;-87
2022/10/19 00:56:41;;;;;;;;;;;;;;;13.79;58.18;100124.59;4356474;32;33041;-90
2022/10/19 00:59:11;;;;;;;;;;;;;;;13.87;58.00;100133.16;4356061;32;34078;-86
2022/10/19 01:01:40;;;;;;;;;;;;;;;14.00;57.48;100129.38;4355886;32;33424;-89
2022/10/19 01:04:13;;;;;;;;;;;;;;;13.86;57.80;100127.03;4358314;32;33762;-87
2022/10/19 01:06:41;;;;;;;;;;;;;;;13.99;57.51;100121.59;4353932;32;33794;-91
2022/10/19 01:09:14;;;;;;;;;;;;;;;14.05;57.43;100124.94;4360676;32;34635;-86
2022/10/19 01:11:44;;;;;;;;;;;;;;;14.23;56.78;100120.22;4355703;32;34613;-86
2022/10/19 01:14:16;;;;;;;;;;;;;;;14.10;57.35;100114.41;4361090;32;33898;-88
2022/10/19 01:16:47;;;;;;;;;;;;;;;14.22;56.78;100115.91;4342157;33;34679;-86
2022/10/19 01:19:29;;;;;;;;;;;;;;;14.05;56.95;100111.87;4345925;33;34688;-86
2022/10/19 01:22:00;;;;;;;;;;;;;;;14.18;56.88;100109.03;4351910;32;33562;-87
2022/10/19 01:24:42;;;;;;;;;;;;;;;14.42;56.59;100108.47;4354388;32;35048;-89
2022/10/19 01:27:38;;;;;;;;;;;;;;;14.38;56.71;100106.00;4357056;32;33984;-88
2022/10/19 01:30:08;;;;;;;;;;;;;;;14.38;56.92;100098.16;4362315;32;33307;-87
2022/10/19 01:32:52;;;;;;;;;;;;;;;14.50;56.42;100100.50;4356007;32;34768;-86
2022/10/19 01:35:24;;;;;;;;;;;;;;;14.42;56.72;100099.81;4341656;33;33415;-87
2022/10/19 01:38:14;;;;;;;;;;;;;;;14.56;56.34;100102.13;4341324;33;32822;-86
2022/10/19 01:40:45;;;;;;;;;;;;;;;14.28;57.05;100087.06;4350599;32;34480;-86
2022/10/19 01:43:17;;;;;;;;;;;;;;;14.46;56.93;100086.66;4352788;32;35021;-85
2022/10/19 01:45:47;;;;;;;;;;;;;;;14.55;56.73;100082.16;4351138;32;34855;-87
2022/10/19 01:48:19;;;;;;;;;;;;;;;14.58;56.73;100076.84;4355351;32;32792;-87
2022/10/19 01:50:50;;;;;;;;;;;;;;;14.50;57.01;100072.62;4353538;32;33830;-84
2022/10/19 01:53:19;;;;;;;;;;;;;;;14.48;57.25;100073.56;4354564;32;34331;-91
2022/10/19 01:55:49;;;;;;;;;;;;;;;14.33;57.81;100071.28;4361742;32;34096;-86
2022/10/19 01:58:22;;;;;;;;;;;;;;;14.46;57.67;100072.75;4358176;32;33606;-87
2022/10/19 02:00:52;;;;;;;;;;;;;;;14.37;57.90;100079.03;4368752;32;34014;-90
2022/10/19 02:03:23;;;;;;;;;;;;;;;14.56;57.67;100070.81;4354146;32;33915;-86
2022/10/19 02:05:51;;;;;;;;;;;;;;;14.62;57.60;100076.75;4359738;32;32287;-86
2022/10/19 02:08:22;;;;;;;;;;;;;;;14.48;57.96;100084.00;4357579;32;32879;-86
2022/10/19 02:10:52;;;;;;;;;;;;;;;14.61;57.31;100084.59;4355875;32;33143;-86
2022/10/19 02:13:25;;;;;;;;;;;;;;;14.41;57.87;100080.69;4346404;32;33927;-88
2022/10/19 02:15:55;;;;;;;;;;;;;;;14.46;57.74;100096.25;4341551;33;33768;-90
2022/10/19 02:18:25;;;;;;;;;;;;;;;14.47;57.83;100092.72;4357654;32;33688;-87
2022/10/19 02:20:54;;;;;;;;;;;;;;;14.22;58.82;100087.19;4356838;32;36473;-89
2022/10/19 02:23:26;;;;;;;;;;;;;;;14.28;58.48;100082.72;4355278;32;34121;-86
2022/10/19 02:25:55;;;;;;;;;;;;;;;14.40;58.23;100084.19;4357250;32;33770;-86
2022/10/19 02:28:28;;;;;;;;;;;;;;;14.40;58.32;100086.81;4359182;32;32351;-86
2022/10/19 02:30:59;;;;;;;;;;;;;;;14.37;58.44;100086.84;4361688;32;34712;-91
2022/10/19 02:33:28;;;;;;;;;;;;;;;14.40;58.66;100091.13;4351707;32;33304;-87
2022/10/19 02:35:56;;;;;;;;;;;;;;;14.30;58.65;100093.97;4341891;32;34463;-88
2022/10/19 02:38:31;;;;;;;;;;;;;;;14.27;58.56;100088.81;4356823;32;33276;-85
2022/10/19 02:41:02;;;;;;;;;;;;;;;14.31;58.33;100087.00;4360265;32;34056;-90
2022/10/19 02:43:33;;;;;;;;;;;;;;;14.20;58.54;100081.16;4349969;32;34553;-86
2022/10/19 02:46:04;;;;;;;;;;;;;;;14.12;58.84;100077.84;4355529;32;33712;-85
2022/10/19 02:48:34;;;;;;;;;;;;;;;14.16;58.83;100077.75;4357842;32;33612;-86
2022/10/19 02:51:02;;;;;;;;;;;;;;;14.16;59.00;100076.88;4354304;32;34214;-86
2022/10/19 02:53:31;;;;;;;;;;;;;;;14.26;58.84;100076.66;4354946;32;33092;-87
2022/10/19 02:56:04;;;;;;;;;;;;;;;14.28;58.82;100087.06;4355794;32;34439;-85
2022/10/19 02:58:38;;;;;;;;;;;;;;;14.06;59.74;100084.94;4353283;32;32770;-87
2022/10/19 03:01:09;;;;;;;;;;;;;;;14.30;59.21;100083.53;4347520;32;33696;-86
2022/10/19 03:03:37;;;;;;;;;;;;;;;14.23;59.81;100084.56;4360305;32;34770;-86
2022/10/19 03:06:06;;;;;;;;;;;;;;;14.25;59.92;100085.38;4354980;32;34595;-86
2022/10/19 03:08:36;;;;;;;;;;;;;;;14.22;60.47;100087.19;4356194;32;33655;-85
2022/10/19 03:11:05;;;;;;;;;;;;;;;14.27;60.41;100080.13;4350336;32;32078;-86
2022/10/19 03:13:36;;;;;;;;;;;;;;;14.27;60.50;100087.94;4354067;32;34696;-85
2022/10/19 03:16:10;;;;;;;;;;;;;;;14.24;60.61;100088.03;4361275;32;33902;-89
2022/10/19 03:18:45;;;;;;;;;;;;;;;14.24;60.47;100088.03;4357337;32;34389;-88
2022/10/19 03:21:13;;;;;;;;;;;;;;;14.09;60.74;100086.62;4355424;32;33256;-86
2022/10/19 03:23:44;;;;;;;;;;;;;;;14.32;60.12;100093.94;4348613;32;35089;-86
2022/10/19 03:26:15;;;;;;;;;;;;;;;13.97;60.92;100090.34;4361202;32;34152;-88
2022/10/19 03:28:45;;;;;;;;;;;;;;;13.91;61.17;100098.28;4358913;32;31894;-90
2022/10/19 03:31:15;;;;;;;;;;;;;;;14.13;60.69;100087.38;4350552;32;33540;-90
2022/10/19 03:33:49;;;;;;;;;;;;;;;14.28;59.92;100090.53;4354437;32;34481;-86
2022/10/19 03:36:21;;;;;;;;;;;;;;;14.35;59.49;100082.56;4354316;32;34748;-86
2022/10/19 03:38:55;;;;;;;;;;;;;;;14.22;59.72;100102.84;4359077;32;34459;-86
2022/10/19 03:41:24;;;;;;;;;;;;;;;14.13;60.02;100095.22;4354900;32;34312;-89
2022/10/19 03:43:58;;;;;;;;;;;;;;;14.01;60.25;100096.31;4353557;32;33897;-87
2022/10/19 03:46:37;;;;;;;;;;;;;;;14.28;59.38;100102.72;4353962;32;33706;-86
2022/10/19 03:49:05;;;;;;;;;;;;;;;14.02;60.11;100100.69;4356329;32;32053;-85
2022/10/19 03:51:42;;;;;;;;;;;;;;;14.15;59.75;100099.50;4351445;32;32735;-88
2022/10/19 03:54:14;;;;;;;;;;;;;;;14.12;59.77;100112.63;4345148;32;34091;-86
2022/10/19 03:56:43;;;;;;;;;;;;;;;14.09;59.88;100108.34;4346413;32;33175;-88
2022/10/19 03:59:18;;;;;;;;;;;;;;;13.93;60.26;100106.06;4347744;32;34776;-87
2022/10/19 04:01:48;;;;;;;;;;;;;;;14.12;59.47;100110.03;4353410;32;34521;-87
2022/10/19 04:04:18;;;;;;;;;;;;;;;14.16;58.96;100111.69;4357993;32;34371;-86
2022/10/19 04:06:47;;;;;;;;;;;;;;;14.39;58.14;100110.31;4353903;32;34250;-90
2022/10/19 04:09:17;;;;;;;;;;;;;;;14.32;58.28;100098.28;4358611;32;33152;-86
2022/10/19 04:11:46;;;;;;;;;;;;;;;14.40;57.98;100102.47;4340917;32;34608;-86
2022/10/19 04:14:15;;;;;;;;;;;;;;;14.27;58.65;100103.59;4359396;32;34866;-86
2022/10/19 04:17:04;;;;;;;;;;;;;;;14.53;57.81;100108.25;4358991;32;32693;-86
2022/10/19 04:19:33;;;;;;;;;;;;;;;14.60;57.23;100104.66;4354595;32;34702;-86
2022/10/19 04:22:04;;;;;;;;;;;;;;;14.55;57.20;100108.25;4341043;33;34002;-88
2022/10/19 04:24:32;;;;;;;;;;;;;;;14.24;58.31;100111.50;4351884;32;33665;-86
2022/10/19 04:27:01;;;;;;;;;;;;;;;14.33;58.22;100108.72;4360689;32;34493;-86
2022/10/19 04:29:34;;;;;;;;;;;;;;;14.39;57.88;100111.16;4354436;32;33385;-86
2022/10/19 04:32:08;;;;;;;;;;;;;;;14.25;58.43;100110.59;4339871;33;32296;-86
2022/10/19 04:34:37;;;;;;;;;;;;;;;14.15;58.60;100101.28;4352780;32;33929;-88
2022/10/19 04:37:08;;;;;;;;;;;;;;;14.33;58.36;100090.44;4359105;32;33113;-86
2022/10/19 04:39:39;;;;;;;;;;;;;;;14.25;59.02;100085.38;4363015;32;32974;-89
2022/10/19 04:42:08;;;;;;;;;;;;;;;13.99;60.34;100082.44;4356077;32;34671;-85
2022/10/19 04:44:38;;;;;;;;;;;;;;;14.09;60.11;100097.03;4351017;32;36551;-87
2022/10/19 04:47:12;;;;;;;;;;;;;;;14.05;59.79;100109.28;4342974;33;34227;-85
2022/10/19 04:49:40;;;;;;;;;;;;;;;14.13;59.49;100105.66;4347590;32;32503;-88
2022/10/19 04:52:10;;;;;;;;;;;;;;;14.30;58.95;100108.75;4360183;32;33841;-86
2022/10/19 04:54:41;;;;;;;;;;;;;;;14.15;59.30;100086.47;4353799;32;33713;-91
2022/10/19 04:57:12;;;;;;;;;;;;;;;14.13;59.19;100087.38;4351625;32;34075;-87
2022/10/19 04:59:40;;;;;;;;;;;;;;;14.12;59.30;100083.94;4354285;32;32849;-88
2022/10/19 05:02:16;;;;;;;;;;;;;;;13.97;59.93;100090.34;4353837;32;33307;-86
2022/10/19 05:04:47;;;;;;;;;;;;;;;14.15;59.59;100083.84;4347415;32;33696;-88
2022/10/19 05:07:15;;;;;;;;;;;;;;;14.14;59.92;100078.69;4351009;32;33994;-87
2022/10/19 05:09:44;;;;;;;;;;;;;;;13.72;61.56;100081.28;4356028;32;34108;-87
2022/10/19 05:12:14;;;;;;;;;;;;;;;13.57;62.63;100087.66;4359858;32;34989;-86
2022/10/19 05:14:46;;;;;;;;;;;;;;;13.58;63.13;100087.63;4355132;32;34762;-86
2022/10/19 05:17:23;;;;;;;;;;;;;;;13.60;63.62;100090.19;4353706;32;33964;-87
2022/10/19 05:19:52;;;;;;;;;;;;;;;13.39;64.44;100089.72;4357242;32;32645;-86
2022/10/19 05:22:21;;;;;;;;;;;;;;;13.27;65.45;100104.69;4354350;32;33545;-84
2022/10/19 05:24:50;;;;;;;;;;;;;;;13.29;65.39;100092.50;4357899;32;34351;-86
2022/10/19 05:27:25;;;;;;;;;;;;;;;13.28;65.84;100090.78;4352177;32;33921;-86
2022/10/19 05:29:54;;;;;;;;;;;;;;;13.26;66.23;100095.13;4352778;32;34431;-90
2022/10/19 05:32:25;;;;;;;;;;;;;;;13.06;67.26;100101.56;4352507;32;34602;-86
2022/10/19 05:34:54;;;;;;;;;;;;;;;13.22;67.09;100094.34;4354980;32;33621;-86
2022/10/19 05:37:24;;;;;;;;;;;;;;;13.33;67.02;100107.19;4355723;32;33985;-88
2022/10/19 05:39:54;;;;;;;;;;;;;;;13.42;66.93;100104.44;4352287;32;32891;-84
2022/10/19 05:42:23;;;;;;;;;;;;;;;13.14;68.25;100111.84;4355965;32;36113;-87
2022/10/19 05:44:52;;;;;;;;;;;;;;;13.29;68.08;100110.75;4353572;32;33638;-86
2022/10/19 05:47:20;;;;;;;;;;;;;;;13.57;67.05;100114.56;4354951;32;33649;-89
2022/10/19 05:49:57;;;;;;;;;;;;;;;13.60;66.88;100114.53;4346537;32;33173;-86
2022/10/19 05:52:29;;;;;;;;;;;;;;;13.55;67.17;100116.34;4355328;32;33969;-86
2022/10/19 05:54:58;;;;;;;;;;;;;;;13.42;67.66;100114.87;4356412;32;33654;-89
2022/10/19 05:57:32;;;;;;;;;;;;;;;13.71;66.65;100118.69;4357326;32;34227;-86
2022/10/19 06:00:02;;;;;;;;;;;;;;;13.63;66.97;100130.12;4361871;32;32843;-84
2022/10/19 06:02:38;;;;;;;;;;;;;;;13.58;67.15;100131.94;4342214;32;33400;-87
2022/10/19 06:05:09;;;;;;;;;;;;;;;13.76;66.76;100128.13;4339953;32;34489;-87
2022/10/19 06:07:42;;;;;;;;;;;;;;;13.60;67.57;100137.12;4355082;32;34375;-88
2022/10/19 06:10:10;;;;;;;;;;;;;;;13.84;66.76;100136.69;4360109;32;33729;-86
2022/10/19 06:12:42;;;;;;;;;;;;;;;13.61;67.76;100151.88;4346644;32;33940;-86
2022/10/19 06:15:18;;;;;;;;;;;;;;;13.90;66.68;100147.88;4348266;32;33560;-89
2022/10/19 06:17:46;;;;;;;;;;;;;;;14.05;66.39;100152.78;4342495;33;33446;-86
2022/10/19 06:20:25;;;;;;;;;;;;;;;14.30;65.51;100163.56;4342217;33;33892;-91
2022/10/19 06:22:54;;;;;;;;;;;;;;;14.34;65.48;100159.16;4355190;32;32570;-91
2022/10/19 06:25:26;;;;;;;;;;;;;;;14.26;65.83;100157.56;4349421;32;36129;-90
2022/10/19 06:28:04;;;;;;;;;;;;;;;14.37;65.49;100159.09;4347673;32;33888;-87
2022/10/19 06:30:34;;;;;;;;;;;;;;;14.51;64.89;100163.09;4353141;32;32919;-86
2022/10/19 06:33:04;;;;;;;;;;;;;;;14.28;65.98;100170.59;4350469;32;34196;-86
2022/10/19 06:35:35;;;;;;;;;;;;;;;14.46;65.63;100164.97;4351178;32;33624;-86
2022/10/19 06:38:06;;;;;;;;;;;;;;;14.59;65.22;100169.94;4348258;32;34837;-86
2022/10/19 06:40:35;;;;;;;;;;;;;;;14.79;64.58;100167.75;4345995;32;33048;-89
2022/10/19 06:43:04;;;;;;;;;;;;;;;14.80;64.60;100169.47;4346600;32;34536;-86
2022/10/19 06:45:34;;;;;;;;;;;;;;;14.57;65.59;100177.84;4352636;32;33268;-88
2022/10/19 06:48:06;;;;;;;;;;;;;;;14.83;64.90;100173.75;4349970;32;33535;-90
2022/10/19 06:50:36;;;;;;;;;;;;;;;14.49;66.05;100170.09;4355369;32;32540;-86
2022/10/19 06:53:05;;;;;;;;;;;;;;;14.75;65.62;100176.56;4350866;32;33666;-86
2022/10/19 06:55:36;;;;;;;;;;;;;;;14.77;65.24;100182.59;4345752;32;33775;-88
2022/10/19 06:58:06;;;;;;;;;;;;;;;14.92;64.82;100190.09;4352740;32;33854;-89
2022/10/19 07:00:36;;;;;;;;;;;;;;;14.94;65.18;100193.53;4347936;32;32942;-89
2022/10/19 07:03:07;;;;;;;;;;;;;;;14.97;64.92;100196.97;4347936;32;33249;-86
2022/10/19 07:05:41;;;;;;;;;;;;;;;14.93;65.01;100197.03;4346768;32;33196;-86
2022/10/19 07:08:10;;;;;;;;;;;;;;;14.40;66.88;100199.03;4346043;32;34228;-87
2022/10/19 07:10:42;;;;;;;;;;;;;;;14.52;66.69;100195.28;4350994;32;32585;-88
2022/10/19 07:13:11;;;;;;;;;;;;;;;14.95;65.37;100204.81;4347366;32;34129;-86
2022/10/19 07:15:40;;;;;;;;;;;;;;;14.54;67.03;100205.75;4346290;32;34022;-86
2022/10/19 07:18:09;;;;;;;;;;;;;;;14.87;65.92;100202.41;4350354;32;33913;-85
2022/10/19 07:20:42;;;;;;;;;;;;;;;14.82;66.26;100209.47;4361270;32;33188;-85
2022/10/19 07:23:11;;;;;;;;;;;;;;;15.02;65.33;100219.47;4348604;32;33844;-87
2022/10/19 07:25:47;;;;;;;;;;;;;;;15.07;65.42;100224.59;4346997;32;34791;-85
2022/10/19 07:28:15;;;;;;;;;;;;;;;15.44;64.17;100231.56;4355123;32;34731;-86
2022/10/19 07:30:47;;;;;;;;;;;;;;;15.42;64.01;100223.75;4355741;32;32383;-87
2022/10/19 07:35:58;;;;;;;;;;;;;;;15.63;63.58;100229.34;4347398;32;34183;-86
2022/10/19 07:38:30;;;;;;;;;;;;;;;15.66;63.35;100227.53;4356407;32;34592;-88
2022/10/19 07:41:03;;;;;;;;;;;;;;;15.72;63.58;100230.00;4355643;32;32279;-91
2022/10/19 07:43:32;;;;;;;;;;;;;;;15.98;62.65;100238.94;4348729;32;33699;-89
2022/10/19 07:46:01;;;;;;;;;;;;;;;16.02;62.70;100237.06;4352528;32;33618;-84
2022/10/19 07:48:33;;;;;;;;;;;;;;;15.85;63.38;100229.69;4340786;33;34827;-89
2022/10/19 07:51:04;;;;;;;;;;;;;;;16.04;62.52;100236.13;4343098;33;33017;-87
2022/10/19 07:53:33;;;;;;;;;;;;;;;15.90;63.04;100238.25;4340505;33;34629;-85
2022/10/19 07:56:03;;;;;;;;;;;;;;;15.88;62.92;100232.25;4351926;32;34810;-86
2022/10/19 07:58:36;;;;;;;;;;;;;;;15.87;63.00;100225.25;4355299;32;34114;-85
2022/10/19 08:01:10;;;;;;;;;;;;;;;15.76;63.69;100225.56;4351459;32;33798;-87
2022/10/19 08:03:39;;;;;;;;;;;;;;;15.91;63.19;100222.53;4345512;32;33432;-89
2022/10/19 08:06:30;;;;;;;;;;;;;;;16.11;62.84;100215.91;4354627;32;34107;-87
2022/10/19 08:09:02;;;;;;;;;;;;;;;16.59;61.48;100218.88;4351134;32;34386;-88
2022/10/19 08:11:32;;;;;;;;;;;;;;;16.86;60.44;100218.97;4347569;32;33032;-87
2022/10/19 08:14:04;;;;;;;;;;;;;;;16.81;60.55;100216.50;4343869;32;34381;-86
2022/10/19 08:16:37;;;;;;;;;;;;;;;16.96;60.36;100214.31;4347470;32;34029;-90
2022/10/19 08:19:07;;;;;;;;;;;;;;;17.06;59.61;100214.00;4354306;32;33872;-90
2022/10/19 08:21:43;;;;;;;;;;;;;;;17.06;58.93;100213.16;4354755;32;32893;-87
2022/10/19 08:24:12;;;;;;;;;;;;;;;17.23;58.74;100215.22;4362417;32;33317;-87
2022/10/19 08:26:42;;;;;;;;;;;;;;;17.09;59.36;100222.69;4348231;32;34397;-92
2022/10/19 08:29:12;;;;;;;;;;;;;;;17.47;58.50;100224.91;4355506;32;34221;-86
2022/10/19 08:31:42;;;;;;;;;;;;;;;17.35;58.52;100230.56;4353444;32;32476;-88
2022/10/19 08:34:11;;;;;;;;;;;;;;;17.39;58.74;100232.16;4353183;32;34593;-88
2022/10/19 08:36:48;;;;;;;;;;;;;;;17.57;58.13;100228.09;4352536;32;35054;-86
2022/10/19 08:39:17;;;;;;;;;;;;;;;17.37;59.02;100226.13;4352511;32;35245;-87
2022/10/19 08:41:53;;;;;;;;;;;;;;;17.66;58.77;100224.28;4354896;32;33856;-90
2022/10/19 08:44:27;;;;;;;;;;;;;;;17.86;57.90;100218.41;4362276;32;34738;-86
2022/10/19 08:46:58;;;;;;;;;;;;;;;18.24;56.98;100221.41;4357013;32;33752;-90
2022/10/19 08:49:39;;;;;;;;;;;;;;;17.96;56.97;100226.81;4356940;32;33523;-90
2022/10/19 08:52:12;;;;;;;;;;;;;;;18.24;55.17;100219.66;4352080;32;33190;-86
2022/10/19 08:54:42;;;;;;;;;;;;;;;18.38;55.26;100218.28;4342394;33;34862;-89
2022/10/19 08:57:15;;;;;;;;;;;;;;;18.29;55.16;100217.72;4356659;32;33773;-87
2022/10/19 08:59:45;;;;;;;;;;;;;;;18.20;55.50;100217.22;4355793;32;33899;-89
2022/10/19 09:02:15;;;;;;;;;;;;;;;18.07;53.92;100219.41;4347402;32;33303;-86
2022/10/19 09:04:45;;;;;;;;;;;;;;;18.24;53.89;100218.78;4341707;33;33861;-89
2022/10/19 09:07:20;;;;;;;;;;;;;;;18.50;52.84;100223.09;4342543;33;33592;-89
2022/10/19 09:09:57;;;;;;;;;;;;;;;18.55;52.11;100221.13;4348443;32;33239;-85
2022/10/19 09:12:31;;;;;;;;;;;;;;;18.47;52.42;100225.84;4353555;32;34271;-90
2022/10/19 09:15:04;;;;;;;;;;;;;;;18.85;51.50;100223.56;4348958;32;34454;-87
2022/10/19 09:17:34;;;;;;;;;;;;;;;18.87;51.21;100217.34;4345590;32;34584;-88
2022/10/19 09:20:13;;;;;;;;;;;;;;;18.75;51.86;100225.66;4350926;32;34933;-87
2022/10/19 09:22:43;;;;;;;;;;;;;;;18.86;51.60;100218.22;4354718;32;33059;-87
2022/10/19 09:25:13;;;;;;;;;;;;;;;18.67;51.08;100219.81;4351602;32;34481;-89
2022/10/19 09:27:43;;;;;;;;;;;;;;;18.90;51.00;100217.22;4351291;32;34966;-87
2022/10/19 09:30:16;;;;;;;;;;;;;;;18.64;51.77;100220.81;4352654;32;33748;-86
2022/10/19 09:32:46;;;;;;;;;;;;;;;18.94;50.53;100231.06;4358874;32;33829;-90
2022/10/19 09:35:19;;;;;;;;;;;;;;;19.20;49.83;100230.03;4352202;32;34200;-88
2022/10/19 09:37:58;;;;;;;;;;;;;;;18.85;50.65;100226.19;4345503;32;34103;-87
2022/10/19 09:40:29;;;;;;;;;;;;;;;19.13;50.04;100233.84;4341915;32;34921;-88
2022/10/19 09:43:01;;;;;;;;;;;;;;;19.38;48.93;100233.72;4341648;33;32388;-88
2022/10/19 09:45:33;;;;;;;;;;;;;;;19.36;49.47;100235.56;4347120;33;33850;-87
2022/10/19 09:48:02;;;;;;;;;;;;;;;19.74;48.65;100234.00;4341593;33;32924;-87
2022/10/19 09:50:38;;;;;;;;;;;;;;;19.34;48.70;100234.75;4354366;32;33875;-86
2022/10/19 09:53:15;;;;;;;;;;;;;;;19.60;47.90;100234.53;4348952;32;33772;-87
2022/10/19 09:55:46;;;;;;;;;;;;;;;19.76;47.57;100231.28;4354116;32;33879;-87
2022/10/19 09:58:24;;;;;;;;;;;;;;;19.55;48.46;100233.03;4357884;32;34812;-90
2022/10/19 10:00:59;;;;;;;;;;;;;;;19.66;48.15;100225.53;4352650;32;33692;-87
2022/10/19 10:03:29;;;;;;;;;;;;;;;19.60;48.74;100221.38;4349179;32;33700;-86
2022/10/19 10:06:02;;;;;;;;;;;;;;;19.75;47.59;100225.16;4351975;32;34123;-88
2022/10/19 10:08:33;;;;;;;;;;;;;;;19.65;46.05;100212.44;4359454;32;34546;-85
2022/10/19 10:11:06;;;;;;;;;;;;;;;19.82;44.26;100212.59;4354333;32;34219;-89
2022/10/19 10:13:44;;;;;;;;;;;;;;;19.27;43.57;100217.50;4353105;32;35005;-87
2022/10/19 10:16:14;;;;;;;;;;;;;;;18.76;45.37;100209.84;4359902;32;34091;-85
2022/10/19 10:18:49;;;;;;;;;;;;;;;19.14;45.42;100218.00;4356397;32;35067;-87
2022/10/19 10:21:32;;;;;;;;;;;;;;;19.09;44.73;100212.09;4354474;32;34750;-89
2022/10/19 10:24:21;;;;;;;;;;;;;;;19.08;44.91;100214.75;4328191;33;34921;-91
2022/10/19 10:26:53;;;;;;;;;;;;;;;19.33;44.62;100211.97;4358632;32;33430;-86
2022/10/19 10:29:22;;;;;;;;;;;;;;;19.67;43.75;100203.56;4354364;32;34128;-87
2022/10/19 10:31:54;;;;;;;;;;;;;;;19.78;43.48;100203.13;4349558;32;34328;-86
2022/10/19 10:34:29;;;;;;;;;;;;;;;19.78;41.69;100196.06;4352807;32;33093;-87
2022/10/19 10:37:16;;;;;;;;;;;;;;;19.48;42.10;100189.47;4356923;32;34132;-87
2022/10/19 10:39:46;;;;;;;;;;;;;;;19.52;42.07;100197.19;4350970;32;32923;-86
2022/10/19 10:42:17;;;;;;;;;;;;;;;19.57;42.77;100191.69;4360589;32;34617;-88
2022/10/19 10:44:45;;;;;;;;;;;;;;;19.80;41.01;100185.47;4357554;32;33031;-85
2022/10/19 10:47:19;;;;;;;;;;;;;;;19.50;41.45;100191.12;4349223;32;34087;-87
2022/10/19 10:49:53;;;;;;;;;;;;;;;19.45;43.53;100181.69;4351311;32;34577;-89
2022/10/19 10:52:26;;;;;;;;;;;;;;;19.36;42.84;100178.53;4358004;32;34064;-87
2022/10/19 10:55:00;;;;;;;;;;;;;;;19.52;43.07;100184.00;4349056;32;33676;-86
2022/10/19 10:57:48;;;;;;;;;;;;;;;19.55;43.17;100173.34;4349519;32;35117;-85
2022/10/19 11:00:17;;;;;;;;;;;;;;;19.58;42.74;100165.31;4347215;32;34540;-89
2022/10/19 11:02:51;;;;;;;;;;;;;;;19.72;41.94;100159.50;4355788;32;33736;-87
2022/10/19 11:05:23;;;;;;;;;;;;;;;19.78;39.12;100164.47;4359267;32;33429;-87
2022/10/19 11:07:53;;;;;;;;;;;;;;;19.39;39.60;100162.59;4353022;32;33454;-90
2022/10/19 11:10:25;;;;;;;;;;;;;;;19.53;38.92;100164.66;4353331;32;33323;-86
2022/10/19 11:12:58;;;;;;;;;;;;;;;19.32;39.26;100140.09;4345991;32;34203;-88
2022/10/19 11:15:31;;;;;;;;;;;;;;;19.48;40.08;100147.38;4365658;32;31598;-89
2022/10/19 11:18:03;;;;;;;;;;;;;;;19.43;41.23;100155.44;4349412;32;33587;-87
2022/10/19 11:20:36;;;;;;;;;;;;;;;19.65;41.06;100159.81;4352330;32;34576;-87
2022/10/19 11:23:07;;;;;;;;;;;;;;;19.43;40.80;100146.72;4348360;32;34417;-89
2022/10/19 11:25:48;;;;;;;;;;;;;;;19.38;40.67;100150.38;4346052;32;32661;-87
2022/10/19 11:28:20;;;;;;;;;;;;;;;19.32;41.15;100155.03;4355506;32;34013;-86
2022/10/19 11:31:01;;;;;;;;;;;;;;;19.59;41.14;100148.59;4350559;32;35142;-87
2022/10/19 11:33:33;;;;;;;;;;;;;;;19.44;41.88;100159.78;4346324;32;33523;-86
2022/10/19 11:36:12;;;;;;;;;;;;;;;19.27;42.34;100146.47;4348211;32;32833;-87
2022/10/19 11:38:43;;;;;;;;;;;;;;;19.19;43.20;100150.28;4348199;32;33895;-88
2022/10/19 11:43:58;;;;;;;;;;;;;;;19.18;44.61;100134.56;4352049;32;33493;-86
2022/10/19 11:46:38;;;;;;;;;;;;;;;19.32;45.00;100134.84;4348925;32;33753;-86
2022/10/19 11:49:13;;;;;;;;;;;;;;;19.24;44.35;100130.84;4349802;32;35473;-89
2022/10/19 11:51:48;;;;;;;;;;;;;;;19.70;43.68;100121.84;4350132;32;34552;-86
2022/10/19 11:54:24;;;;;;;;;;;;;;;19.59;44.00;100121.41;4344916;32;32448;-86
2022/10/19 11:56:56;;;;;;;;;;;;;;;19.71;42.33;100120.06;4353788;32;33836;-86
2022/10/19 11:59:37;;;;;;;;;;;;;;;19.42;42.75;100127.41;4352307;32;33757;-88
2022/10/19 12:02:20;;;;;;;;;;;;;;;19.05;43.58;100123.69;4350110;32;33302;-85
2022/10/19 12:04:51;;;;;;;;;;;;;;;19.28;42.84;100122.75;4349907;32;34779;-89
2022/10/19 12:07:37;;;;;;;;;;;;;;;19.10;43.06;100113.00;4344027;32;33863;-89
2022/10/19 12:10:11;;;;;;;;;;;;;;;19.29;42.80;100102.56;4339171;32;34177;-86
2022/10/19 12:12:46;;;;;;;;;;;;;;;19.27;43.75;100120.19;4345052;33;33020;-87
2022/10/19 12:15:22;;;;;;;;;;;;;;;18.96;43.92;100121.44;4347455;32;34205;-91
2022/10/19 12:17:52;;;;;;;;;;;;;;;19.14;43.39;100122.47;4348018;32;33316;-88
2022/10/19 12:20:26;;;;;;;;;;;;;;;18.91;43.92;100131.31;4353392;32;33427;-87
2022/10/19 12:22:55;;;;;;;;;;;;;;;19.13;43.95;100123.38;4359570;32;33961;-90
2022/10/19 12:25:25;;;;;;;;;;;;;;;19.10;42.78;100120.88;4347210;32;33665;-86
2022/10/19 12:27:57;;;;;;;;;;;;;;;19.00;43.12;100116.94;4348771;32;33144;-88
2022/10/19 12:30:28;;;;;;;;;;;;;;;19.19;42.59;100117.88;4345444;32;34647;-87
2022/10/19 12:33:01;;;;;;;;;;;;;;;18.87;44.02;100103.41;4346306;32;34987;-86
2022/10/19 12:35:45;;;;;;;;;;;;;;;18.94;44.39;100108.37;4350170;32;34665;-87
2022/10/19 12:38:15;;;;;;;;;;;;;;;18.96;44.84;100114.41;4344825;32;32125;-86
2022/10/19 12:40:45;;;;;;;;;;;;;;;18.73;45.12;100111.84;4341518;33;34288;-86
2022/10/19 12:43:13;;;;;;;;;;;;;;;18.83;44.87;100112.38;4346005;32;33615;-86
2022/10/19 12:45:45;;;;;;;;;;;;;;;18.69;44.55;100107.63;4353340;32;33415;-91
2022/10/19 12:48:21;;;;;;;;;;;;;;;19.05;43.64;100104.44;4358739;32;33950;-86
2022/10/19 12:51:10;;;;;;;;;;;;;;;18.79;43.86;100103.72;4360958;32;33500;-85
2022/10/19 12:53:40;;;;;;;;;;;;;;;18.90;42.64;100098.91;4348725;32;34177;-91
2022/10/19 12:56:11;;;;;;;;;;;;;;;19.16;40.89;100089.06;4340366;33;34035;-85
2022/10/19 12:58:47;;;;;;;;;;;;;;;19.01;41.22;100090.56;4347299;32;32534;-84
2022/10/19 13:01:18;;;;;;;;;;;;;;;18.81;41.38;100086.12;4360258;32;33461;-86
2022/10/19 13:03:53;;;;;;;;;;;;;;;18.77;41.57;100081.91;4355473;32;34888;-86
2022/10/19 13:06:30;;;;;;;;;;;;;;;18.79;41.41;100085.34;4347767;32;34668;-88